Time;durP1;ratioP1;P1;durP2;ratioP2;P2;SDS_P1;SDS_P2;PMS_P1;PMS_P2;Temp;Humidity;BMP_temperature;BMP_pressure;BME280_temperature;BME280_humidity;BME280_pressure;Samples;Min_cycle;Max_cycle;Signal;HPM_P1;HPM_P2
2023/03/01 00:02:25;;;;;;;14.18;7.53;;;8.70;46.70;;;;;;7563387;23;20006;-70
2023/03/01 00:05:25;;;;;;;13.52;6.88;;;8.70;46.70;;;;;;7563483;23;20425;-68
2023/03/01 00:08:27;;;;;;;14.88;7.32;;;8.70;46.70;;;;;;7558832;23;20313;-68
2023/03/01 00:11:30;;;;;;;16.38;7.15;;;8.70;46.70;;;;;;7502031;23;20014;-69
2023/03/01 00:14:31;;;;;;;14.45;6.90;;;8.70;46.70;;;;;;7502169;23;20021;-69
2023/03/01 00:17:33;;;;;;;13.40;7.15;;;8.70;46.70;;;;;;7527352;23;20011;-69
2023/03/01 00:20:34;;;;;;;12.40;7.18;;;8.70;46.70;;;;;;7527695;23;20014;-69
2023/03/01 00:23:36;;;;;;;12.52;6.57;;;8.70;46.80;;;;;;7527679;23;20015;-68
2023/03/01 00:26:37;;;;;;;13.10;6.35;;;8.70;46.80;;;;;;7527406;23;20069;-68
2023/03/01 00:29:37;;;;;;;14.25;6.95;;;8.70;46.80;;;;;;7501623;23;20078;-68
2023/03/01 00:32:38;;;;;;;12.98;7.05;;;8.70;46.80;;;;;;7501214;23;20014;-70
2023/03/01 00:35:39;;;;;;;14.50;7.53;;;8.70;46.80;;;;;;7477986;23;20014;-68
2023/03/01 00:38:43;;;;;;;15.43;7.13;;;8.70;46.90;;;;;;7477430;23;20007;-71
2023/03/01 00:41:44;;;;;;;14.10;7.45;;;8.70;46.80;;;;;;7527459;23;20019;-69
2023/03/01 00:44:45;;;;;;;16.17;7.40;;;8.70;46.80;;;;;;7501916;23;20428;-70
2023/03/01 00:47:46;;;;;;;16.80;6.72;;;8.70;46.80;;;;;;7501711;23;20029;-69
2023/03/01 00:50:46;;;;;;;14.75;6.95;;;8.70;46.80;;;;;;7501927;23;20018;-68
2023/03/01 00:53:50;;;;;;;10.93;6.20;;;8.70;46.90;;;;;;7503151;23;20033;-68
2023/03/01 00:56:51;;;;;;;11.68;5.88;;;8.70;47.00;;;;;;7488227;23;20097;-67
2023/03/01 00:59:52;;;;;;;15.02;7.05;;;8.70;47.00;;;;;;7502191;23;20006;-69
2023/03/01 01:02:53;;;;;;;13.75;7.05;;;8.70;46.90;;;;;;7501508;23;20038;-69
2023/03/01 01:05:54;;;;;;;19.95;7.95;;;8.80;46.90;;;;;;7478222;23;20437;-70
2023/03/01 01:08:56;;;;;;;13.23;7.35;;;8.80;46.80;;;;;;7500836;23;20105;-68
2023/03/01 01:11:58;;;;;;;14.95;7.30;;;8.80;46.80;;;;;;7502189;23;20027;-68
2023/03/01 01:14:59;;;;;;;14.20;7.30;;;8.90;46.80;;;;;;7501410;23;20432;-69
2023/03/01 01:18:00;;;;;;;20.67;8.18;;;8.80;46.80;;;;;;7501265;23;20051;-68
2023/03/01 01:21:07;;;;;;;15.65;7.32;;;8.80;46.80;;;;;;7501613;23;20094;-68
2023/03/01 01:24:09;;;;;;;10.00;4.97;;;8.70;46.90;;;;;;7501453;23;20007;-69
2023/03/01 01:27:10;;;;;;;18.85;7.85;;;8.70;46.90;;;;;;7500973;23;20068;-68
2023/03/01 01:30:11;;;;;;;19.33;7.15;;;8.70;46.90;;;;;;7500789;23;20033;-68
2023/03/01 01:33:12;;;;;;;17.65;8.75;;;8.80;46.90;;;;;;7500736;23;20437;-68
2023/03/01 01:36:13;;;;;;;19.60;9.05;;;8.80;46.80;;;;;;7526372;23;20113;-70
2023/03/01 01:39:14;;;;;;;21.58;9.80;;;8.80;46.80;;;;;;7500471;23;20086;-70
2023/03/01 01:42:16;;;;;;;18.10;8.35;;;8.80;46.80;;;;;;7526659;23;20082;-69
2023/03/01 01:45:34;;;;;;;21.85;9.20;;;8.80;46.80;;;;;;7501295;23;20070;-68
2023/03/01 01:48:44;;;;;;;19.20;9.18;;;8.90;46.90;;;;;;7526248;23;20015;-68
2023/03/01 01:51:48;;;;;;;17.85;8.70;;;8.80;46.90;;;;;;7500757;23;20389;-70
2023/03/01 01:55:11;;;;;;;20.38;9.77;;;8.70;46.80;;;;;;7526148;23;20082;-69
2023/03/01 01:58:15;;;;;;;19.33;8.85;;;8.70;46.80;;;;;;7500927;23;20408;-70
2023/03/01 02:01:16;;;;;;;18.48;10.13;;;8.80;46.80;;;;;;7500978;23;20073;-70
2023/03/01 02:04:17;;;;;;;19.30;9.35;;;8.80;46.80;;;;;;7501121;23;20019;-68
2023/03/01 02:07:22;;;;;;;17.50;9.10;;;8.80;46.60;;;;;;7500693;23;20034;-69
2023/03/01 02:10:24;;;;;;;21.85;8.90;;;8.80;46.60;;;;;;7519765;23;20022;-68
2023/03/01 02:13:26;;;;;;;20.15;8.98;;;8.80;46.50;;;;;;7562096;23;20035;-69
2023/03/01 02:16:30;;;;;;;19.02;9.10;;;8.80;46.60;;;;;;7560537;23;20006;-68
2023/03/01 02:19:57;;;;;;;22.25;9.05;;;8.80;46.70;;;;;;7561880;23;20014;-69
2023/03/01 02:23:21;;;;;;;16.40;8.60;;;8.70;46.70;;;;;;7562183;23;20011;-70
2023/03/01 02:26:47;;;;;;;19.45;8.48;;;8.80;46.70;;;;;;7560472;23;20412;-70
2023/03/01 02:29:48;;;;;;;23.95;9.73;;;8.70;46.70;;;;;;7560203;23;20112;-68
2023/03/01 02:32:50;;;;;;;21.80;9.18;;;8.70;46.70;;;;;;7560341;23;20416;-67
2023/03/01 02:35:54;;;;;;;20.67;9.95;;;8.70;46.80;;;;;;7560576;23;20007;-69
2023/03/01 02:38:58;;;;;;;25.42;10.38;;;8.70;46.80;;;;;;7560107;23;20018;-69
2023/03/01 02:42:01;;;;;;;19.45;9.30;;;8.70;46.90;;;;;;7560635;23;20042;-70
2023/03/01 02:45:03;;;;;;;21.73;8.65;;;8.60;46.90;;;;;;7560667;23;20069;-68
2023/03/01 02:48:04;;;;;;;17.63;8.63;;;8.60;47.00;;;;;;7560425;23;20017;-68
2023/03/01 02:51:17;;;;;;;18.25;8.10;;;8.70;47.00;;;;;;7560519;23;20028;-69
2023/03/01 02:54:29;;;;;;;18.35;8.95;;;8.60;47.00;;;;;;7560564;23;20022;-68
2023/03/01 02:57:32;;;;;;;19.42;8.68;;;8.60;47.10;;;;;;7561874;23;20416;-69
2023/03/01 03:00:46;;;;;;;21.45;9.05;;;8.60;47.10;;;;;;7564428;23;20018;-69
2023/03/01 03:03:48;;;;;;;22.55;10.05;;;8.50;47.10;;;;;;7562806;23;20395;-70
2023/03/01 03:06:51;;;;;;;19.10;8.93;;;8.60;47.20;;;;;;7562608;23;20010;-67
2023/03/01 03:09:52;;;;;;;22.33;9.35;;;8.60;47.20;;;;;;7542750;23;20025;-69
2023/03/01 03:12:55;;;;;;;23.15;9.07;;;8.60;47.20;;;;;;7503268;23;20015;-68
2023/03/01 03:15:57;;;;;;;22.05;10.10;;;8.60;47.20;;;;;;7504671;23;20146;-70
2023/03/01 03:19:04;;;;;;;21.98;9.60;;;8.60;47.20;;;;;;7485775;23;20070;-68
2023/03/01 03:22:05;;;;;;;15.27;6.53;;;8.60;47.20;;;;;;7537885;23;20028;-68
2023/03/01 03:25:11;;;;;;;19.63;9.52;;;8.70;47.20;;;;;;7532319;23;20467;-68
2023/03/01 03:28:12;;;;;;;18.38;8.15;;;8.70;47.20;;;;;;7528905;23;20346;-68
2023/03/01 03:31:13;;;;;;;19.35;8.80;;;8.60;47.30;;;;;;7479231;23;20015;-68
2023/03/01 03:34:17;;;;;;;21.88;8.95;;;8.60;47.30;;;;;;7502987;23;20049;-69
2023/03/01 03:40:43;;;;;;;19.10;9.25;;;8.60;47.30;;;;;;7502758;23;20014;-70
2023/03/01 03:43:44;;;;;;;20.73;8.88;;;8.60;47.50;;;;;;7527720;23;20010;-69
2023/03/01 03:46:44;;;;;;;23.42;9.18;;;8.50;47.40;;;;;;7502367;23;20015;-69
2023/03/01 03:49:45;;;;;;;19.92;9.65;;;8.50;47.50;;;;;;7527654;23;20066;-68
2023/03/01 03:52:46;;;;;;;22.35;10.00;;;8.50;47.50;;;;;;7502022;23;20105;-68
2023/03/01 03:55:49;;;;;;;19.08;10.00;;;8.50;47.50;;;;;;7527443;23;20094;-69
2023/03/01 03:58:49;;;;;;;25.10;8.93;;;8.50;47.50;;;;;;7501557;23;20051;-68
2023/03/01 04:01:50;;;;;;;21.15;9.25;;;8.50;47.50;;;;;;7527675;23;20428;-69
2023/03/01 04:04:51;;;;;;;18.77;9.05;;;8.50;47.50;;;;;;7501924;23;20014;-70
2023/03/01 04:08:00;;;;;;;21.33;8.77;;;8.50;47.60;;;;;;7526849;23;20097;-68
2023/03/01 04:11:25;;;;;;;20.65;10.02;;;8.50;47.70;;;;;;7559569;23;20014;-67
2023/03/01 04:14:24;;;;;;;22.15;9.60;;;8.40;47.70;;;;;;7562855;23;20105;-69
2023/03/01 04:17:25;;;;;;;23.25;9.57;;;8.40;47.80;;;;;;7537374;23;20026;-68
2023/03/01 04:20:29;;;;;;;19.60;9.95;;;8.50;47.80;;;;;;7561358;23;20073;-67
2023/03/01 04:23:30;;;;;;;20.58;10.27;;;8.50;47.90;;;;;;7561329;23;20030;-68
2023/03/01 04:26:30;;;;;;;23.02;8.93;;;8.50;47.80;;;;;;7561422;23;20134;-69
2023/03/01 04:29:31;;;;;;;23.02;10.85;;;8.40;47.80;;;;;;7562949;23;20029;-68
2023/03/01 04:32:32;;;;;;;19.52;9.80;;;8.40;47.80;;;;;;7563203;23;20094;-68
2023/03/01 04:35:35;;;;;;;24.13;10.38;;;8.50;47.90;;;;;;7563297;23;20006;-69
2023/03/01 04:38:39;;;;;;;18.00;8.80;;;8.50;47.90;;;;;;7560844;23;20010;-68
2023/03/01 04:41:42;;;;;;;23.08;9.57;;;8.50;47.90;;;;;;7560931;23;20011;-70
2023/03/01 04:44:44;;;;;;;24.40;10.98;;;8.50;47.90;;;;;;7562864;23;20454;-68
2023/03/01 04:47:46;;;;;;;26.20;10.48;;;8.50;47.90;;;;;;7562804;23;20006;-69
2023/03/01 04:50:47;;;;;;;22.20;10.10;;;8.50;47.80;;;;;;7561034;23;20021;-68
2023/03/01 04:53:48;;;;;;;24.42;8.88;;;8.50;47.80;;;;;;7562552;23;20022;-68
2023/03/01 04:56:49;;;;;;;26.25;9.63;;;8.60;47.80;;;;;;7562866;23;20471;-68
2023/03/01 04:59:50;;;;;;;22.00;9.52;;;8.50;47.80;;;;;;7562271;23;20037;-68
2023/03/01 05:02:55;;;;;;;21.88;10.07;;;8.50;47.80;;;;;;7561160;23;20014;-69
2023/03/01 05:05:59;;;;;;;20.70;8.85;;;8.50;47.90;;;;;;7562690;23;20424;-68
2023/03/01 05:09:00;;;;;;;22.17;9.68;;;8.50;47.90;;;;;;7551115;23;20019;-68
2023/03/01 05:12:01;;;;;;;20.90;9.93;;;8.50;47.90;;;;;;7526579;23;20313;-69
2023/03/01 05:15:06;;;;;;;25.15;9.90;;;8.50;47.80;;;;;;7527070;23;20057;-69
2023/03/01 05:18:11;;;;;;;23.08;9.77;;;8.60;47.80;;;;;;7526325;23;20295;-68
2023/03/01 05:21:15;;;;;;;26.70;10.40;;;8.60;47.70;;;;;;7527076;23;20077;-67
2023/03/01 05:24:16;;;;;;;21.90;10.70;;;8.50;47.80;;;;;;7501436;23;20011;-68
2023/03/01 05:27:17;;;;;;;19.00;8.65;;;8.40;47.90;;;;;;7501972;23;20317;-68
2023/03/01 05:30:18;;;;;;;21.40;10.25;;;8.40;48.10;;;;;;7526784;23;20006;-67
2023/03/01 05:33:21;;;;;;;22.98;10.30;;;8.40;48.00;;;;;;7526535;23;20719;-69
2023/03/01 05:36:22;;;;;;;22.33;9.40;;;8.30;48.10;;;;;;7502774;23;20085;-69
2023/03/01 05:39:26;;;;;;;20.83;9.50;;;8.30;48.20;;;;;;7506222;23;20023;-69
2023/03/01 05:42:26;;;;;;;19.90;9.32;;;8.20;48.30;;;;;;7538183;23;20094;-68
2023/03/01 05:45:27;;;;;;;26.25;10.93;;;8.30;48.40;;;;;;7501166;23;20006;-67
2023/03/01 05:48:28;;;;;;;24.13;10.20;;;8.30;48.40;;;;;;7526659;23;20058;-67
2023/03/01 05:51:29;;;;;;;21.85;9.35;;;8.30;48.30;;;;;;7500974;23;20026;-68
2023/03/01 05:54:30;;;;;;;24.95;10.80;;;8.30;48.30;;;;;;7501142;23;20007;-68
2023/03/01 05:57:31;;;;;;;27.13;10.75;;;8.40;48.30;;;;;;7526381;23;20017;-67
2023/03/01 06:00:32;;;;;;;26.48;11.38;;;8.40;48.20;;;;;;7526820;23;20302;-67
2023/03/01 06:03:33;;;;;;;27.88;11.35;;;8.40;48.20;;;;;;7501712;23;20289;-68
2023/03/01 06:06:39;;;;;;;24.85;10.00;;;8.40;48.20;;;;;;7527446;23;20134;-69
2023/03/01 06:09:40;;;;;;;25.73;10.20;;;8.40;48.20;;;;;;7525992;23;20011;-67
2023/03/01 06:12:43;;;;;;;23.05;10.35;;;8.50;48.30;;;;;;7526792;23;20025;-68
2023/03/01 06:15:44;;;;;;;22.02;9.88;;;8.40;48.10;;;;;;7527089;23;20030;-67
2023/03/01 06:18:45;;;;;;;23.40;10.55;;;8.50;48.20;;;;;;7525995;23;20144;-68
2023/03/01 06:21:46;;;;;;;22.45;9.55;;;8.40;48.10;;;;;;7526309;23;20142;-67
2023/03/01 06:24:47;;;;;;;22.45;10.45;;;8.40;48.10;;;;;;7526358;23;20019;-68
2023/03/01 06:27:48;;;;;;;23.48;10.20;;;7.80;47.80;;;;;;7500198;23;20013;-68
2023/03/01 06:30:51;;;;;;;24.27;10.68;;;8.40;48.10;;;;;;7527872;23;20162;-68
2023/03/01 06:33:52;;;;;;;24.20;10.82;;;8.40;48.00;;;;;;7529392;23;20074;-68
2023/03/01 06:36:53;;;;;;;22.55;9.80;;;8.40;48.10;;;;;;7529114;23;20010;-69
2023/03/01 06:39:54;;;;;;;22.90;11.05;;;8.50;48.10;;;;;;7528265;23;20017;-68
2023/03/01 06:42:54;;;;;;;22.35;9.68;;;8.50;48.10;;;;;;7503272;23;20413;-69
2023/03/01 06:45:56;;;;;;;24.48;10.32;;;8.40;48.00;;;;;;7528890;23;20025;-68
2023/03/01 06:48:56;;;;;;;22.65;11.07;;;8.40;48.00;;;;;;7503238;23;20101;-69
2023/03/01 06:51:57;;;;;;;23.17;11.05;;;8.40;48.00;;;;;;7529097;23;20101;-68
2023/03/01 06:54:59;;;;;;;26.27;10.57;;;8.40;48.00;;;;;;7529468;23;20042;-68
2023/03/01 06:58:02;;;;;;;21.52;9.70;;;8.40;47.90;;;;;;7503212;23;20007;-68
2023/03/01 07:01:07;;;;;;;26.70;10.80;;;8.40;48.00;;;;;;7479321;23;20082;-68
2023/03/01 07:04:08;;;;;;;23.98;10.30;;;8.40;48.00;;;;;;7503544;23;20124;-71
2023/03/01 07:07:09;;;;;;;25.83;10.18;;;8.40;48.00;;;;;;7502629;23;20007;-67
2023/03/01 07:10:11;;;;;;;24.40;10.45;;;8.50;48.00;;;;;;7528453;23;20126;-68
2023/03/01 07:13:11;;;;;;;31.55;11.77;;;8.40;48.00;;;;;;7528116;23;20113;-67
2023/03/01 07:16:14;;;;;;;30.77;12.30;;;8.40;48.10;;;;;;7502824;23;20015;-67
2023/03/01 07:19:14;;;;;;;35.92;13.70;;;8.40;48.20;;;;;;7502508;23;20378;-67
2023/03/01 07:22:15;;;;;;;31.48;13.02;;;8.40;48.20;;;;;;7502680;23;20015;-69
2023/03/01 07:25:16;;;;;;;28.35;12.48;;;8.30;48.20;;;;;;7528837;23;20011;-70
2023/03/01 07:28:17;;;;;;;30.90;13.82;;;8.30;48.30;;;;;;7478763;23;20484;-69
2023/03/01 07:31:18;;;;;;;33.53;13.35;;;8.30;48.30;;;;;;7528189;23;20413;-68
2023/03/01 07:34:19;;;;;;;36.97;13.57;;;8.40;48.30;;;;;;7528601;23;20014;-69
2023/03/01 07:37:20;;;;;;;30.00;13.35;;;8.40;48.40;;;;;;7528269;23;20058;-68
2023/03/01 07:40:21;;;;;;;29.02;13.35;;;8.30;48.30;;;;;;7502193;23;20011;-68
2023/03/01 07:43:22;;;;;;;28.08;12.00;;;8.30;48.40;;;;;;7501938;23;20508;-68
2023/03/01 07:46:23;;;;;;;28.13;11.20;;;8.30;48.40;;;;;;7502622;23;20011;-67
2023/03/01 07:49:26;;;;;;;32.60;13.77;;;8.30;48.40;;;;;;7528162;23;20103;-69
2023/03/01 07:52:27;;;;;;;29.60;11.63;;;8.40;48.30;;;;;;7529118;23;20033;-68
2023/03/01 07:55:28;;;;;;;32.83;13.02;;;8.30;48.30;;;;;;7528866;23;20110;-68
2023/03/01 07:58:29;;;;;;;33.13;13.70;;;8.30;48.40;;;;;;7503711;23;20323;-69
2023/03/01 08:01:30;;;;;;;32.42;12.00;;;8.30;48.50;;;;;;7531894;23;20045;-67
2023/03/01 08:04:32;;;;;;;33.90;13.10;;;8.20;48.50;;;;;;7504822;23;20078;-68
2023/03/01 08:07:33;;;;;;;29.15;13.05;;;8.20;48.60;;;;;;7502650;23;20467;-70
2023/03/01 08:10:35;;;;;;;33.60;13.73;;;8.20;48.70;;;;;;7527913;23;20108;-67
2023/03/01 08:13:36;;;;;;;35.90;13.82;;;8.20;48.70;;;;;;7527399;23;20006;-67
2023/03/01 08:16:37;;;;;;;30.52;12.95;;;8.10;48.70;;;;;;7527675;23;20017;-68
2023/03/01 08:19:38;;;;;;;30.80;13.65;;;8.10;48.70;;;;;;7526767;23;20007;-68
2023/03/01 08:22:39;;;;;;;30.42;11.88;;;8.20;48.80;;;;;;7501835;23;20600;-68
2023/03/01 08:25:40;;;;;;;31.05;13.55;;;8.20;48.70;;;;;;7527274;23;20024;-68
2023/03/01 08:28:41;;;;;;;34.42;13.10;;;8.30;48.70;;;;;;7527622;23;20066;-67
2023/03/01 08:31:42;;;;;;;29.48;12.48;;;8.30;48.60;;;;;;7501349;23;20017;-66
2023/03/01 08:34:47;;;;;;;28.92;13.50;;;8.40;48.50;;;;;;7527509;23;20078;-68
2023/03/01 08:37:48;;;;;;;39.20;12.88;;;8.40;48.40;;;;;;7527047;23;20006;-69
2023/03/01 08:40:49;;;;;;;37.70;12.57;;;8.40;48.40;;;;;;7527416;23;20424;-68
2023/03/01 08:43:50;;;;;;;31.00;11.50;;;8.50;48.50;;;;;;7501748;23;20011;-68
2023/03/01 08:46:52;;;;;;;28.67;12.20;;;8.50;48.40;;;;;;7526877;23;20021;-68
2023/03/01 08:49:53;;;;;;;33.08;13.13;;;8.60;48.40;;;;;;7501137;23;20022;-68
2023/03/01 08:52:54;;;;;;;29.45;13.27;;;8.60;48.30;;;;;;7527351;23;20492;-68
2023/03/01 08:55:55;;;;;;;35.92;12.88;;;8.70;48.20;;;;;;7527528;23;20378;-69
2023/03/01 08:58:56;;;;;;;28.70;12.02;;;8.70;48.20;;;;;;7527084;23;20352;-67
2023/03/01 09:01:57;;;;;;;33.30;14.45;;;8.70;48.10;;;;;;7527320;23;20057;-69
2023/03/01 09:04:58;;;;;;;32.47;13.82;;;8.80;48.00;;;;;;7502106;23;20022;-69
2023/03/01 09:07:59;;;;;;;32.63;12.77;;;8.80;48.00;;;;;;7527307;23;20010;-69
2023/03/01 09:11:02;;;;;;;36.20;14.00;;;8.90;47.90;;;;;;7527580;23;20010;-69
2023/03/01 09:14:05;;;;;;;33.88;12.82;;;9.00;47.70;;;;;;7478128;23;20006;-69
2023/03/01 09:17:06;;;;;;;37.80;14.88;;;9.20;47.60;;;;;;7501731;23;20081;-69
2023/03/01 09:20:07;;;;;;;34.50;13.75;;;9.30;47.40;;;;;;7526989;23;20026;-71
2023/03/01 09:23:08;;;;;;;33.05;13.93;;;9.40;47.20;;;;;;7527221;23;20458;-69
2023/03/01 09:26:11;;;;;;;37.47;13.05;;;9.50;46.90;;;;;;7501490;23;20087;-68
2023/03/01 09:29:12;;;;;;;32.80;13.73;;;9.60;46.80;;;;;;7501362;23;20094;-69
2023/03/01 09:32:13;;;;;;;31.35;13.50;;;9.70;46.70;;;;;;7501512;23;20069;-69
2023/03/01 09:35:15;;;;;;;32.78;12.75;;;9.70;46.50;;;;;;7502159;23;20022;-68
2023/03/01 09:38:15;;;;;;;33.03;11.90;;;9.70;46.40;;;;;;7501969;23;20007;-69
2023/03/01 09:41:42;;;;;;;33.25;12.20;;;9.70;46.10;;;;;;7527087;23;20014;-68
2023/03/01 09:44:54;;;;;;;27.95;12.05;;;9.60;46.10;;;;;;7527680;23;20405;-70
2023/03/01 09:47:56;;;;;;;33.25;12.63;;;9.60;46.20;;;;;;7527042;23;20094;-68
2023/03/01 09:50:58;;;;;;;25.55;12.02;;;9.60;46.30;;;;;;7527984;23;20037;-67
2023/03/01 09:54:02;;;;;;;31.13;12.15;;;9.70;46.30;;;;;;7502119;23;20397;-68
2023/03/01 09:57:19;;;;;;;30.63;12.68;;;9.70;46.00;;;;;;7527012;23;20013;-68
2023/03/01 10:00:42;;;;;;;31.67;11.07;;;9.70;45.80;;;;;;7528258;23;20047;-69
2023/03/01 10:04:04;;;;;;;33.92;12.38;;;9.70;45.80;;;;;;7528058;23;20027;-69
2023/03/01 10:07:11;;;;;;;26.58;12.50;;;9.80;45.70;;;;;;7530915;23;20011;-68
2023/03/01 10:10:39;;;;;;;39.75;13.23;;;9.80;45.50;;;;;;7530092;23;20114;-67
2023/03/01 10:13:48;;;;;;;35.13;12.68;;;9.80;45.50;;;;;;7504368;23;20011;-68
2023/03/01 10:17:25;;;;;;;31.55;13.13;;;9.80;45.40;;;;;;7480963;23;20018;-67
2023/03/01 10:20:52;;;;;;;27.65;12.02;;;9.90;45.30;;;;;;7533790;23;20006;-69
2023/03/01 10:23:53;;;;;;;31.13;14.35;;;10.00;45.80;;;;;;7531367;23;20493;-69
2023/03/01 10:27:05;;;;;;;34.97;11.85;;;10.20;44.80;;;;;;7503603;23;20022;-67
2023/03/01 10:30:31;;;;;;;41.03;13.25;;;10.30;44.70;;;;;;7504076;23;20066;-69
2023/03/01 10:33:37;;;;;;;26.60;11.95;;;10.80;44.50;;;;;;7479519;23;20015;-69
2023/03/01 10:36:40;;;;;;;31.92;12.90;;;10.80;44.10;;;;;;7503720;23;20035;-69
2023/03/01 10:39:58;;;;;;;30.98;13.45;;;10.90;43.80;;;;;;7502955;23;20126;-68
2023/03/01 10:43:02;;;;;;;33.33;13.48;;;11.10;43.60;;;;;;7528934;23;20329;-70
2023/03/01 10:46:29;;;;;;;30.73;13.18;;;11.20;43.40;;;;;;7528903;23;20033;-69
2023/03/01 10:49:31;;;;;;;25.27;11.02;;;11.40;43.20;;;;;;7502688;23;20026;-68
2023/03/01 10:52:37;;;;;;;28.08;11.55;;;11.50;42.90;;;;;;7529151;23;20014;-69
2023/03/01 10:55:40;;;;;;;30.17;13.95;;;11.60;42.60;;;;;;7502976;23;20011;-67
2023/03/01 10:59:02;;;;;;;31.90;13.10;;;11.80;42.50;;;;;;7502649;23;20013;-69
2023/03/01 11:02:09;;;;;;;35.13;14.93;;;11.90;42.00;;;;;;7502804;23;20021;-69
2023/03/01 11:05:13;;;;;;;31.42;12.27;;;11.90;41.70;;;;;;7528883;23;20023;-69
2023/03/01 11:08:14;;;;;;;31.85;14.25;;;11.70;41.70;;;;;;7528737;23;20449;-70
2023/03/01 11:11:22;;;;;;;33.97;13.45;;;12.00;41.70;;;;;;7528157;23;20014;-69
2023/03/01 11:14:36;;;;;;;29.70;13.07;;;12.10;41.50;;;;;;7502454;23;20029;-68
2023/03/01 11:17:38;;;;;;;32.25;13.55;;;12.20;41.30;;;;;;7502655;23;20026;-69
2023/03/01 11:20:39;;;;;;;28.17;11.82;;;12.20;41.00;;;;;;7503578;23;20043;-68
2023/03/01 11:23:43;;;;;;;27.30;12.30;;;12.20;41.00;;;;;;7502420;23;20015;-68
2023/03/01 11:26:51;;;;;;;31.42;12.88;;;12.10;40.90;;;;;;7527782;23;20055;-69
2023/03/01 11:29:58;;;;;;;29.17;13.52;;;12.20;40.90;;;;;;7501965;23;20082;-68
2023/03/01 11:33:14;;;;;;;38.22;13.57;;;12.20;40.70;;;;;;7528086;23;20014;-68
2023/03/01 11:36:29;;;;;;;29.48;13.45;;;12.20;40.50;;;;;;7528733;23;20007;-69
2023/03/01 11:39:37;;;;;;;26.40;13.45;;;12.00;40.60;;;;;;7527707;23;20014;-68
2023/03/01 11:42:47;;;;;;;36.25;13.35;;;12.00;40.70;;;;;;7528424;23;20066;-68
2023/03/01 11:45:54;;;;;;;36.40;14.30;;;11.80;40.60;;;;;;7528111;23;20456;-68
2023/03/01 11:49:29;;;;;;;35.15;14.90;;;11.80;40.90;;;;;;7527794;23;20054;-68
2023/03/01 11:52:35;;;;;;;33.72;14.43;;;11.70;41.20;;;;;;7528568;23;20029;-68
2023/03/01 11:56:03;;;;;;;37.60;15.32;;;11.80;41.30;;;;;;7502727;23;20014;-69
2023/03/01 11:59:19;;;;;;;35.17;12.55;;;11.80;41.30;;;;;;7523689;23;20286;-69
2023/03/01 12:02:37;;;;;;;37.35;14.77;;;11.90;41.30;;;;;;7527993;23;20067;-69
2023/03/01 12:06:03;;;;;;;33.28;14.50;;;11.90;41.10;;;;;;7527824;23;20119;-69
2023/03/01 12:09:17;;;;;;;37.30;14.88;;;11.90;41.10;;;;;;7527070;23;20065;-69
2023/03/01 12:12:18;;;;;;;34.03;14.60;;;11.90;41.10;;;;;;7527488;23;20011;-68
2023/03/01 12:15:30;;;;;;;32.72;12.85;;;11.80;41.00;;;;;;7527109;23;20290;-68
2023/03/01 12:18:51;;;;;;;32.15;13.75;;;11.80;41.10;;;;;;7527345;23;20077;-69
2023/03/01 12:22:23;;;;;;;33.15;14.02;;;11.70;41.20;;;;;;7478315;23;20382;-67
2023/03/01 12:25:41;;;;;;;33.92;13.25;;;11.70;41.20;;;;;;7528085;23;20469;-68
2023/03/01 12:28:56;;;;;;;31.45;13.88;;;11.70;41.20;;;;;;7501883;23;20066;-68
2023/03/01 12:32:15;;;;;;;34.75;13.63;;;11.70;41.80;;;;;;7527190;23;20022;-70
2023/03/01 12:35:50;;;;;;;40.58;12.85;;;11.70;41.10;;;;;;7501842;23;20061;-66
2023/03/01 12:38:58;;;;;;;31.63;13.13;;;11.80;41.00;;;;;;7501600;23;20014;-67
2023/03/01 12:42:09;;;;;;;36.45;14.45;;;11.80;41.00;;;;;;7503506;23;20011;-67
2023/03/01 12:45:30;;;;;;;30.05;13.05;;;11.80;40.80;;;;;;7505154;23;20014;-67
2023/03/01 12:48:32;;;;;;;28.75;13.05;;;11.90;40.70;;;;;;7502079;23;20097;-68
2023/03/01 12:51:35;;;;;;;34.47;13.65;;;12.00;40.60;;;;;;7501616;23;20445;-68
2023/03/01 12:54:37;;;;;;;32.30;13.70;;;12.10;40.50;;;;;;7501841;23;20252;-68
2023/03/01 12:57:45;;;;;;;39.05;13.90;;;12.20;40.30;;;;;;7527301;23;20089;-68
2023/03/01 13:01:04;;;;;;;29.75;12.57;;;12.40;40.10;;;;;;7501905;23;20007;-67
2023/03/01 13:04:42;;;;;;;29.33;13.77;;;12.80;39.60;;;;;;7527401;23;20040;-69
2023/03/01 13:07:52;;;;;;;27.65;13.30;;;13.20;39.00;;;;;;7500836;23;20070;-69
2023/03/01 13:11:00;;;;;;;30.20;12.60;;;13.40;38.70;;;;;;7526892;23;20385;-68
2023/03/01 13:14:22;;;;;;;32.30;12.65;;;13.60;38.60;;;;;;7526577;23;20441;-67
2023/03/01 13:17:41;;;;;;;34.92;13.90;;;13.70;38.00;;;;;;7526551;23;20674;-67
2023/03/01 13:20:42;;;;;;;29.58;14.00;;;13.90;37.60;;;;;;7526790;23;20070;-67
2023/03/01 13:23:48;;;;;;;30.95;13.90;;;13.90;37.40;;;;;;7526841;23;20041;-67
2023/03/01 13:27:10;;;;;;;28.45;13.05;;;14.00;37.20;;;;;;7526716;23;20078;-68
2023/03/01 13:30:44;;;;;;;33.85;14.50;;;14.00;37.30;;;;;;7477532;23;20094;-66
2023/03/01 13:33:49;;;;;;;36.92;15.80;;;14.00;37.20;;;;;;7393961;24;20043;-68
2023/03/01 13:36:50;;;;;;;29.08;13.13;;;14.00;37.20;;;;;;7417284;24;20012;-68
2023/03/01 13:39:51;;;;;;;33.35;13.40;;;14.10;36.90;;;;;;7416607;24;20088;-67
2023/03/01 13:42:54;;;;;;;28.88;13.32;;;14.10;36.70;;;;;;7417143;24;20012;-67
2023/03/01 13:45:55;;;;;;;32.83;13.35;;;13.90;36.40;;;;;;7417197;24;20596;-67
2023/03/01 13:48:57;;;;;;;25.63;11.90;;;13.80;36.70;;;;;;7393714;24;20434;-68
2023/03/01 13:51:58;;;;;;;30.02;12.18;;;13.70;37.00;;;;;;7417402;24;20012;-67
2023/03/01 13:55:01;;;;;;;27.48;12.77;;;13.60;36.80;;;;;;7394260;24;20084;-67
2023/03/01 13:58:14;;;;;;;23.48;11.85;;;13.50;36.80;;;;;;7393384;24;20023;-66
2023/03/01 14:01:24;;;;;;;29.48;13.10;;;13.50;37.00;;;;;;7393558;24;20108;-68
2023/03/01 14:04:28;;;;;;;27.77;12.35;;;13.40;36.90;;;;;;7417201;24;20039;-67
2023/03/01 14:07:29;;;;;;;25.85;12.20;;;13.40;36.90;;;;;;7393813;24;20311;-67
2023/03/01 14:10:52;;;;;;;29.02;12.63;;;13.30;36.90;;;;;;7545568;23;20033;-70
2023/03/01 14:13:59;;;;;;;32.47;12.98;;;13.20;36.90;;;;;;7560152;23;20043;-68
2023/03/01 14:17:03;;;;;;;30.65;12.68;;;13.10;37.20;;;;;;7562715;23;20010;-67
2023/03/01 14:20:28;;;;;;;25.10;12.05;;;13.00;37.40;;;;;;7562080;23;20433;-67
2023/03/01 14:23:29;;;;;;;27.15;12.55;;;13.00;37.50;;;;;;7561054;23;20018;-68
2023/03/01 14:26:32;;;;;;;32.97;13.50;;;12.90;37.40;;;;;;7562400;23;20397;-67
2023/03/01 14:29:38;;;;;;;32.40;11.88;;;12.70;37.50;;;;;;7562010;23;20017;-67
2023/03/01 14:32:39;;;;;;;27.85;11.20;;;12.60;37.80;;;;;;7562450;23;20015;-68
2023/03/01 14:35:40;;;;;;;25.38;11.68;;;12.50;38.00;;;;;;7560328;23;20444;-68
2023/03/01 14:38:44;;;;;;;31.38;13.70;;;12.40;38.10;;;;;;7562384;23;20013;-67
2023/03/01 14:41:45;;;;;;;30.42;12.18;;;12.40;38.30;;;;;;7562048;23;20086;-69
2023/03/01 14:44:49;;;;;;;30.50;12.93;;;12.30;38.50;;;;;;7535978;23;20014;-68
2023/03/01 14:47:51;;;;;;;32.03;13.32;;;12.20;38.60;;;;;;7560124;23;20341;-67
2023/03/01 14:50:52;;;;;;;30.38;11.98;;;12.10;38.80;;;;;;7560619;23;20014;-67
2023/03/01 14:53:53;;;;;;;35.30;13.43;;;12.10;39.00;;;;;;7562619;23;20477;-67
2023/03/01 14:57:01;;;;;;;31.05;12.57;;;12.00;39.00;;;;;;7564209;23;20077;-68
2023/03/01 15:00:06;;;;;;;20.07;8.73;;;11.90;39.10;;;;;;7562463;23;20057;-68
2023/03/01 15:03:46;;;;;;;30.73;13.60;;;12.00;39.40;;;;;;7564552;23;20025;-65
2023/03/01 15:06:51;;;;;;;28.17;11.57;;;12.60;39.60;;;;;;7561755;23;20045;-66
2023/03/01 15:09:52;;;;;;;31.30;13.32;;;11.90;39.40;;;;;;7537483;23;20053;-66
2023/03/01 15:12:53;;;;;;;25.05;11.23;;;11.90;39.60;;;;;;7562590;23;20388;-66
2023/03/01 15:16:02;;;;;;;32.63;12.68;;;11.80;39.80;;;;;;7565229;23;20081;-66
2023/03/01 15:19:06;;;;;;;32.47;13.35;;;11.60;39.90;;;;;;7565676;23;20101;-67
2023/03/01 15:22:15;;;;;;;28.60;12.45;;;11.50;40.10;;;;;;7574504;23;20025;-67
2023/03/01 15:25:22;;;;;;;29.45;13.10;;;11.40;41.00;;;;;;7564263;23;20010;-67
2023/03/01 15:28:32;;;;;;;31.30;12.63;;;11.20;40.60;;;;;;7562202;23;20071;-67
2023/03/01 15:31:38;;;;;;;24.15;11.70;;;11.10;40.80;;;;;;7566807;23;20436;-67
2023/03/01 15:34:39;;;;;;;34.45;13.05;;;10.90;41.10;;;;;;7567479;23;20006;-67
2023/03/01 15:37:47;;;;;;;28.48;12.40;;;10.80;41.30;;;;;;7564871;23;20440;-67
2023/03/01 15:40:51;;;;;;;;;;;10.70;41.60;;;;;;7565177;23;20318;-67
2023/03/01 15:43:56;;;;;;;26.52;10.82;;;10.70;41.70;;;;;;7562163;23;19916;-68
2023/03/01 15:46:58;;;;;;;28.55;11.60;;;10.60;41.80;;;;;;7563871;23;20116;-66
2023/03/01 15:50:01;;;;;;;33.30;13.50;;;10.70;42.00;;;;;;7537797;23;20088;-67
2023/03/01 15:53:06;;;;;;;27.38;11.00;;;10.60;42.00;;;;;;7514313;23;20428;-67
2023/03/01 15:56:07;;;;;;;30.55;13.93;;;10.90;42.40;;;;;;7563714;23;20010;-69
2023/03/01 15:59:13;;;;;;;24.85;12.88;;;10.40;42.30;;;;;;7563433;23;20010;-66